Latest Weather Observations for Dum In Mirrie

IDD60801

Issued at 9:35 am CST Thursday 24 July 2014 (issued every 30 minutes, with the page automatically refreshed every 10 minutes)

About weather observations | Map of weather stations | Latest weather observations for NT | Other Formats
Station Details ID: 014277 Name: DUM IN MIRRIE AIRSTRIP Lat: -12.63 Lon: 130.37 Height: 3.5 m
Data from the previous 72 hours. | See also: Recent months at Dum In Mirrie
Date/Time
CST
Temp
°C
App
Temp
°C
Dew
Point
Rel
Hum
%
Delta-T
°C
Wind Press
QNH
hPa
Press
MSL
hPa
Rain
since 9 am
mm
Dir
 
Spd
km/h
Gust
km/h
Spd
kts
Gust
kts
24/09:30am 25.2 27.9 20.2 74 3.2 E 6 9 3 5 1015.1 1015.1 0.0
24/09:00am 24.2 27.4 21.3 84 1.9 E 6 9 3 5 1015.0 1015.0 0.0
24/08:30am 22.7 26.0 21.5 93 0.8 E 6 7 3 4 1014.6 1014.6 0.0
24/08:00am 21.3 24.7 21.0 98 0.2 E 4 6 2 3 1014.2 - 0.0
24/07:30am 20.1 22.6 19.8 98 0.2 E 6 7 3 4 1013.8 1013.8 0.0
24/07:00am 20.4 23.0 20.1 98 0.2 E 6 11 3 6 1013.5 - 0.0
24/06:30am 19.4 21.6 19.1 98 0.2 ESE 6 9 3 5 1013.1 1013.1 0.0
24/06:00am 17.9 19.7 17.3 96 0.4 ESE 4 4 2 2 1012.7 1012.7 0.0
24/05:30am 17.9 19.6 17.1 95 0.5 SE 4 4 2 2 1012.6 1012.6 0.0
24/05:00am 18.1 19.9 17.5 96 0.4 ESE 4 6 2 3 1012.6 - 0.0
24/04:30am 18.8 20.6 18.3 97 0.3 ESE 6 6 3 3 1012.4 1012.4 0.0
24/04:00am 17.8 20.2 17.0 95 0.5 CALM 0 2 0 1 1012.3 - 0.0
24/03:30am 18.1 20.5 17.1 94 0.6 CALM 0 4 0 2 1012.3 1012.3 0.0
24/03:00am 18.1 20.5 17.0 93 0.7 CALM 0 0 0 0 1012.7 1012.7 0.0
24/02:30am 18.5 21.0 17.3 93 0.7 CALM 0 4 0 2 1013.0 1013.0 0.0
24/02:00am 18.9 21.7 17.9 94 0.6 CALM 0 0 0 0 1013.3 - 0.0
24/01:30am 18.8 21.5 17.8 94 0.6 CALM 0 0 0 0 1013.4 1013.4 0.0
24/01:00am 18.9 21.6 17.7 93 0.7 CALM 0 0 0 0 1013.6 - 0.0
24/12:30am 19.0 21.8 18.0 94 0.6 CALM 0 0 0 0 1013.5 1013.5 0.0
24/12:00am 18.7 21.3 17.5 93 0.7 CALM 0 0 0 0 1013.5 1013.5 0.0
 
Date/Time
CST
Temp
°C
App
Temp
°C
Dew
Point
Rel
Hum
%
Delta-T
°C
Wind Press
QNH
hPa
Press
MSL
hPa
Rain
since 9 am
mm
Dir
 
Spd
km/h
Gust
km/h
Spd
kts
Gust
kts
23/11:30pm 18.9 21.5 17.6 92 0.8 CALM 0 0 0 0 1013.5 1013.5 0.0
23/11:00pm 18.8 21.4 17.5 92 0.8 CALM 0 0 0 0 1013.6 - 0.0
23/10:30pm 19.2 22.0 17.9 92 0.8 CALM 0 0 0 0 1013.5 1013.5 0.0
23/10:00pm 19.4 22.1 17.7 90 1.0 CALM 0 4 0 2 1013.3 - 0.0
23/09:30pm 19.5 22.1 17.6 89 1.2 CALM 0 0 0 0 1013.1 1013.1 0.0
23/09:00pm 19.4 21.0 17.0 86 1.5 NW 4 4 2 2 1012.7 1012.7 0.0
23/08:30pm 20.0 22.5 17.2 84 1.7 CALM 0 0 0 0 1012.4 1012.4 0.0
23/08:00pm 20.5 22.5 17.9 85 1.6 NNW 4 4 2 2 1012.1 - 0.0
23/07:30pm 21.4 23.1 17.2 77 2.6 N 4 4 2 2 1011.8 1011.8 0.0
23/07:00pm 23.3 25.4 18.0 72 3.3 NNW 4 6 2 3 1011.6 - 0.0
23/06:30pm 24.4 26.7 18.6 70 3.7 NW 4 7 2 4 1011.4 1011.4 0.0
23/06:00pm 25.4 27.3 18.6 66 4.3 NW 6 13 3 7 1011.3 1011.3 0.0
23/05:30pm 26.2 28.3 19.3 65 4.4 NW 7 11 4 6 1011.2 1011.2 0.0
23/05:00pm 26.1 27.4 18.5 63 4.8 NW 9 17 5 9 1011.0 - 0.0
23/04:30pm 26.4 27.3 18.3 61 5.1 NNW 11 19 6 10 1010.8 1010.8 0.0
23/04:00pm 26.8 27.7 18.4 60 5.3 NW 11 17 6 9 1010.9 - 0.0
23/03:30pm 26.7 27.2 18.3 60 5.3 NNW 13 20 7 11 1010.7 1010.7 0.0
23/03:00pm 27.8 29.1 18.5 57 6.0 NNW 9 17 5 9 1010.9 1010.9 0.0
23/02:30pm 27.7 28.5 19.0 59 5.6 NW 13 19 7 10 1011.3 1011.3 0.0
23/02:00pm 27.9 29.3 18.6 57 6.0 W 9 17 5 9 1011.8 - 0.0
23/01:30pm 28.6 28.8 16.8 48 7.4 NNE 11 15 6 8 1012.3 1012.3 0.0
23/01:00pm 28.9 30.0 17.1 49 7.4 NE 7 13 4 7 1012.9 - 0.0
23/12:30pm 27.8 29.0 17.3 52 6.6 ENE 7 13 4 7 1013.6 1013.6 0.0
23/12:00pm 27.0 28.7 18.0 58 5.7 ESE 6 13 3 7 1014.2 1014.2 0.0
23/11:30am 26.9 28.2 18.5 60 5.4 E 9 15 5 8 1014.8 1014.8 0.0
23/11:00am 25.8 26.2 18.2 63 4.8 E 13 19 7 10 1015.2 - 0.0
23/10:30am 25.4 26.1 18.8 67 4.2 E 13 19 7 10 1015.5 1015.5 0.0
23/10:00am 25.2 27.1 18.9 68 4.0 ESE 7 13 4 7 1015.7 - 0.0
23/09:30am 24.8 26.7 18.5 68 4.0 SE 6 11 3 6 1015.7 1015.7 0.0
23/09:00am 23.8 26.0 18.4 72 3.4 SE 4 9 2 5 1015.5 1015.5 0.0
23/08:30am 22.3 24.7 18.7 80 2.3 ESE 4 7 2 4 1015.2 1015.2 0.0
23/08:00am 19.9 22.6 18.7 93 0.7 SE 2 4 1 2 1015.0 - 0.0
23/07:30am 18.2 19.5 17.2 94 0.6 ESE 6 7 3 4 1014.7 1014.7 0.0
23/07:00am 17.8 18.9 16.7 93 0.7 ESE 6 7 3 4 1014.3 - 0.0
23/06:30am 17.3 18.8 15.6 90 1.0 ESE 2 4 1 2 1014.1 1014.1 0.0
23/06:00am 18.3 19.6 16.1 87 1.3 SE 4 4 2 2 1013.8 1013.8 0.0
23/05:30am 19.3 21.1 17.3 88 1.2 SE 4 6 2 3 1013.7 1013.7 0.0
23/05:00am 20.0 21.7 18.1 89 1.2 SSE 6 7 3 4 1013.5 - 0.0
23/04:30am 20.4 22.4 17.8 85 1.6 SSE 4 6 2 3 1013.4 1013.4 0.0
23/04:00am 20.2 21.9 18.0 87 1.4 SSE 6 7 3 4 1013.4 - 0.0
23/03:30am 20.4 22.3 17.6 84 1.7 SSE 4 7 2 4 1013.3 1013.3 0.0
23/03:00am 20.7 22.5 18.3 86 1.5 SSE 6 7 3 4 1013.5 1013.5 0.0
23/02:30am 20.4 22.6 18.3 88 1.3 SSE 4 7 2 4 1013.7 1013.7 0.0
23/02:00am 20.3 22.2 17.7 85 1.6 S 4 6 2 3 1014.0 - 0.0
23/01:30am 20.6 22.4 18.4 87 1.4 S 6 9 3 5 1014.4 1014.4 0.0
23/01:00am 19.3 21.1 17.3 88 1.2 S 4 6 2 3 1014.6 - 0.0
23/12:30am 19.0 20.8 15.5 80 2.1 CALM 0 2 0 1 1014.6 1014.6 0.0
23/12:00am 21.0 22.0 16.4 75 2.8 NNE 6 7 3 4 1014.5 1014.5 0.0
 
Date/Time
CST
Temp
°C
App
Temp
°C
Dew
Point
Rel
Hum
%
Delta-T
°C
Wind Press
QNH
hPa
Press
MSL
hPa
Rain
since 9 am
mm
Dir
 
Spd
km/h
Gust
km/h
Spd
kts
Gust
kts
22/11:30pm 21.8 22.7 16.7 73 3.1 NNE 7 11 4 6 1014.5 1014.5 0.0
22/11:00pm 19.8 21.2 17.4 86 1.5 NE 6 9 3 5 1014.4 - 0.0
22/10:30pm 18.9 20.1 16.0 83 1.7 ENE 4 6 2 3 1014.3 1014.3 0.0
22/10:00pm 19.8 20.6 15.9 78 2.3 ENE 6 7 3 4 1014.1 - 0.0
22/09:30pm 19.6 20.9 17.0 85 1.6 ENE 6 7 3 4 1013.8 1013.8 0.0
22/09:00pm 18.9 20.8 16.7 87 1.3 E 2 4 1 2 1013.5 1013.5 0.0
22/08:30pm 19.7 22.1 16.9 84 1.7 CALM 0 6 0 3 1013.2 1013.2 0.0
22/08:00pm 20.6 23.0 17.0 80 2.2 CALM 0 0 0 0 1012.9 - 0.0
22/07:30pm 22.6 25.2 17.5 73 3.2 CALM 0 2 0 1 1012.6 1012.6 0.0
22/07:00pm 24.0 25.2 18.2 70 3.6 NNE 9 13 5 7 1012.2 - 0.0
22/06:30pm 24.7 25.4 17.9 66 4.3 NNE 11 19 6 10 1011.8 1011.8 0.0
22/06:00pm 25.2 26.0 18.2 65 4.4 N 11 15 6 8 1011.5 1011.5 0.0
22/05:30pm 25.6 25.9 18.0 63 4.8 NNE 13 19 7 10 1011.2 1011.2 0.0
22/05:00pm 26.7 27.2 18.3 60 5.3 N 13 20 7 11 1010.9 - 0.0
22/04:30pm 27.5 28.1 18.5 58 5.8 N 13 19 7 10 1011.0 1011.0 0.0
22/04:00pm 28.1 28.1 17.3 52 6.8 N 13 24 7 13 1011.1 - 0.0
22/03:30pm 28.8 28.6 15.7 45 8.1 NNE 11 19 6 10 1011.1 1011.1 0.0
22/03:00pm 30.9 28.8 11.3 30 11.4 E 13 20 7 11 1011.4 1011.4 0.0
22/02:30pm 30.3 27.6 10.3 29 11.4 E 15 22 8 12 1011.8 1011.8 0.0
22/02:00pm 30.6 28.5 11.1 30 11.2 E 13 24 7 13 1012.4 - 0.0
22/01:30pm 30.3 27.6 10.3 29 11.4 E 15 28 8 15 1013.2 1013.2 0.0
22/01:00pm 29.3 27.2 12.3 35 9.9 E 15 28 8 15 1013.7 - 0.0
22/12:30pm 29.5 27.7 13.3 37 9.6 E 15 26 8 14 1014.4 1014.4 0.0
22/12:00pm 28.2 27.4 15.1 44 8.0 ENE 13 20 7 11 1015.0 1015.0 0.0
22/11:30am 27.8 27.5 16.4 50 7.1 E 13 22 7 12 1015.5 1015.5 0.0
22/11:00am 27.2 28.1 18.5 59 5.6 E 11 19 6 10 1015.9 - 0.0
22/10:30am 26.2 27.1 18.3 61 5.0 E 11 19 6 10 1016.4 1016.4 0.0
22/10:00am 25.3 26.6 19.4 70 3.8 E 11 17 6 9 1016.7 - 0.0
22/09:30am 24.7 26.8 20.2 76 2.9 E 9 15 5 8 1016.6 1016.6 0.0
22/09:00am 23.8 26.6 20.5 82 2.1 E 6 9 3 5 1016.4 1016.4 0.0
22/08:30am 22.1 25.7 21.3 95 0.5 ESE 4 6 2 3 1016.1 1016.1 0.0
22/08:00am 20.0 23.2 19.7 98 0.2 ESE 2 4 1 2 1015.8 - 0.0
22/07:30am 17.9 19.8 17.6 98 0.2 ESE 4 6 2 3 1015.5 1015.5 0.0
22/07:00am 18.0 19.5 17.7 98 0.2 E 6 7 3 4 1015.2 - 0.0
22/06:30am 17.3 18.9 16.8 97 0.3 ESE 4 6 2 3 1014.9 1014.9 0.0
22/06:00am 17.5 19.9 17.0 97 0.3 CALM 0 0 0 0 1014.7 1014.7 0.0
22/05:30am 17.4 19.0 16.9 97 0.3 E 4 4 2 2 1014.7 1014.7 0.0
22/05:00am 17.2 19.0 16.4 95 0.5 ESE 2 4 1 2 1014.6 - 0.0
22/04:30am 17.8 19.9 17.2 96 0.4 E 2 4 1 2 1014.5 1014.5 0.0
22/04:00am 17.7 19.4 17.1 96 0.4 NE 4 4 2 2 1014.4 - 0.0
22/03:30am 18.3 20.3 17.8 97 0.3 ENE 4 6 2 3 1014.4 1014.4 0.0
22/03:00am 18.3 20.2 17.7 96 0.4 ENE 4 6 2 3 1014.4 1014.4 0.0
22/02:30am 18.1 20.0 17.6 97 0.3 E 4 6 2 3 1014.6 1014.6 0.0
22/02:00am 18.4 20.4 17.8 96 0.4 ESE 4 7 2 4 1014.8 - 0.0
22/01:30am 18.3 20.2 17.7 96 0.4 ESE 4 6 2 3 1014.8 1014.8 0.0
22/01:00am 17.9 20.3 16.9 94 0.6 CALM 0 0 0 0 1014.7 - 0.0
22/12:30am 18.4 20.7 17.6 95 0.5 ESE 2 4 1 2 1014.8 1014.8 0.0
22/12:00am 17.8 20.1 16.8 94 0.6 CALM 0 0 0 0 1015.0 1015.0 0.0
 
Date/Time
CST
Temp
°C
App
Temp
°C
Dew
Point
Rel
Hum
%
Delta-T
°C
Wind Press
QNH
hPa
Press
MSL
hPa
Rain
since 9 am
mm
Dir
 
Spd
km/h
Gust
km/h
Spd
kts
Gust
kts
21/11:30pm 17.9 19.8 16.6 92 0.8 SSE 2 2 1 1 1014.9 1014.9 0.0
21/11:00pm 18.3 20.6 16.8 91 0.9 CALM 0 0 0 0 1014.9 - 0.0
21/10:30pm 18.8 21.2 17.1 90 1.0 CALM 0 0 0 0 1015.1 1015.1 0.0
21/10:00pm 19.4 22.2 17.9 91 0.9 CALM 0 0 0 0 1015.2 - 0.0
21/09:30pm 19.6 22.2 17.4 87 1.3 CALM 0 0 0 0 1015.3 1015.3 0.0
21/09:00pm 20.3 23.0 17.7 85 1.6 CALM 0 0 0 0 1015.0 1015.0 0.0
21/08:30pm 21.7 24.6 18.1 80 2.2 CALM 0 4 0 2 1014.7 1014.7 0.0
21/08:00pm 23.1 25.3 19.1 78 2.5 N 6 7 3 4 1014.3 - 0.0
21/07:30pm 23.6 25.8 19.3 77 2.7 N 6 9 3 5 1013.9 1013.9 0.0
21/07:00pm 23.9 26.1 19.2 75 3.0 NNW 6 7 3 4 1013.5 - 0.0
21/06:30pm 24.7 27.0 19.5 73 3.3 NNW 6 9 3 5 1013.1 1013.1 0.0
21/06:00pm 25.7 28.0 19.8 70 3.8 NW 7 11 4 6 1012.6 1012.6 0.0
21/05:30pm 26.5 28.9 20.1 68 4.2 WNW 7 11 4 6 1012.3 1012.3 0.0
21/05:00pm 26.8 29.4 20.4 68 4.2 W 7 11 4 6 1012.1 - 0.0
21/04:30pm 26.8 29.3 20.2 67 4.3 WNW 7 13 4 7 1012.1 1012.1 0.0
21/04:00pm 27.2 29.2 20.0 64 4.7 WNW 9 17 5 9 1012.2 - 0.0
21/03:30pm 27.4 29.4 20.0 64 4.8 WNW 9 17 5 9 1012.2 1012.2 0.0
21/03:00pm 27.5 29.7 20.3 65 4.7 NW 9 15 5 8 1012.4 1012.4 0.0
21/02:30pm 27.1 28.7 20.0 65 4.6 WNW 11 19 6 10 1012.6 1012.6 0.0
21/02:00pm 27.0 29.0 19.9 65 4.6 WNW 9 17 5 9 1013.1 - 0.0
21/01:30pm 27.3 29.0 19.4 62 5.1 W 9 17 5 9 1013.8 1013.8 0.0
21/01:00pm 29.3 29.5 15.8 44 8.3 ENE 9 19 5 10 1014.1 - 0.0
21/12:30pm 28.8 29.7 16.7 48 7.6 ENE 7 15 4 8 1014.8 1014.8 0.0
21/12:00pm 27.7 29.2 18.1 56 6.1 E 7 11 4 6 1015.3 1015.3 0.0
21/11:30am 27.4 28.2 18.1 57 5.9 ENE 11 17 6 9 1015.7 1015.7 0.0
21/11:00am 27.0 28.1 18.8 60 5.3 E 11 17 6 9 1016.1 - 0.0
21/10:30am 26.2 28.4 20.3 70 3.8 E 9 15 5 8 1016.3 1016.3 0.0
21/10:00am 25.6 27.5 20.6 74 3.3 E 11 17 6 9 1016.4 - 0.0

Other Formats:

Comma delimited format used in spreadsheet applications
http://www.bom.gov.au/fwo/IDD60801/IDD60801.94116.axf

JavaScript Object Notation format (JSON) in row-major order
http://www.bom.gov.au/fwo/IDD60801/IDD60801.94116.json